Time;durP1;ratioP1;P1;durP2;ratioP2;P2;SDS_P1;SDS_P2;PMS_P1;PMS_P2;Temp;Humidity;BMP_temperature;BMP_pressure;BME280_temperature;BME280_humidity;BME280_pressure;Samples;Min_cycle;Max_cycle;Signal;HPM_P1;HPM_P2
2022/07/04 00:02:03;;;;;;;0.60;0.60;;;;;21.60;98498.00;;;;5115815;28;20677;-75
2022/07/04 00:04:30;;;;;;;0.80;0.80;;;;;21.50;98501.00;;;;5115876;28;20517;-77
2022/07/04 00:06:57;;;;;;;0.50;0.50;;;;;21.60;98497.00;;;;5115886;28;20201;-77
2022/07/04 00:09:24;;;;;;;0.60;0.60;;;;;21.70;98492.00;;;;5116325;28;20522;-76
2022/07/04 00:11:51;;;;;;;0.40;0.40;;;;;21.90;98501.00;;;;5098126;28;20550;-77
2022/07/04 00:14:18;;;;;;;0.30;0.30;;;;;21.70;98492.00;;;;5115892;28;20251;-77
2022/07/04 00:16:44;;;;;;;0.40;0.40;;;;;21.80;98491.00;;;;5097899;28;20198;-77
2022/07/04 00:19:11;;;;;;;0.60;0.60;;;;;21.70;98487.00;;;;5115816;28;20190;-77
2022/07/04 00:21:38;;;;;;;0.50;0.50;;;;;21.60;98483.00;;;;5115748;28;20210;-77
2022/07/04 00:24:05;;;;;;;0.68;0.68;;;;;21.60;98477.00;;;;5115757;28;20190;-76
2022/07/04 00:26:33;;;;;;;0.50;0.50;;;;;21.80;98480.00;;;;5115645;28;20236;-76
2022/07/04 00:29:00;;;;;;;0.50;0.50;;;;;21.60;98479.00;;;;5097741;28;20202;-77
2022/07/04 00:31:27;;;;;;;0.75;0.75;;;;;21.40;98482.00;;;;5115365;28;20198;-77
2022/07/04 00:33:54;;;;;;;0.60;0.60;;;;;21.60;98499.00;;;;5115224;28;20218;-77
2022/07/04 00:36:21;;;;;;;0.73;0.73;;;;;21.40;98498.00;;;;5115731;28;20193;-76
2022/07/04 00:38:47;;;;;;;0.50;0.50;;;;;21.40;98500.00;;;;5115389;28;20229;-76
2022/07/04 00:41:14;;;;;;;0.40;0.40;;;;;21.40;98500.00;;;;5115389;28;20550;-75
2022/07/04 00:43:44;;;;;;;0.50;0.50;;;;;21.40;98499.00;;;;5097339;28;20247;-77
2022/07/04 00:46:11;;;;;;;0.68;0.68;;;;;21.30;98507.00;;;;5115568;28;20221;-76
2022/07/04 00:48:37;;;;;;;0.50;0.50;;;;;21.30;98505.00;;;;5115348;28;20209;-77
2022/07/04 00:51:04;;;;;;;0.50;0.50;;;;;21.30;98510.00;;;;5115444;28;20218;-76
2022/07/04 00:53:31;;;;;;;0.55;0.55;;;;;21.40;98508.00;;;;5115141;28;20251;-76
2022/07/04 00:55:58;;;;;;;0.50;0.50;;;;;21.10;98500.00;;;;5115107;28;20682;-76
2022/07/04 00:58:25;;;;;;;0.40;0.40;;;;;21.20;98510.00;;;;5115117;28;20186;-77
2022/07/04 01:00:52;;;;;;;0.43;0.43;;;;;21.10;98502.00;;;;5115129;28;20218;-77
2022/07/04 01:03:19;;;;;;;0.50;0.50;;;;;21.10;98504.00;;;;5114870;28;20221;-76
2022/07/04 01:05:47;;;;;;;0.67;0.67;;;;;21.20;98513.00;;;;5115347;28;20213;-77
2022/07/04 01:08:14;;;;;;;0.60;0.60;;;;;21.10;98512.00;;;;5097487;28;20521;-76
2022/07/04 01:10:40;;;;;;;0.60;0.60;;;;;21.10;98508.00;;;;5114878;28;20194;-76
2022/07/04 01:13:07;;;;;;;0.40;0.40;;;;;20.90;98498.00;;;;5114929;28;20698;-77
2022/07/04 01:15:34;;;;;;;0.50;0.50;;;;;20.90;98500.00;;;;5114780;28;20210;-76
2022/07/04 01:18:01;;;;;;;0.40;0.40;;;;;20.90;98505.00;;;;5114807;28;20190;-77
2022/07/04 01:20:35;;;;;;;0.50;0.50;;;;;20.90;98506.00;;;;5114922;28;20237;-76
2022/07/04 01:23:02;;;;;;;0.50;0.50;;;;;20.90;98508.00;;;;5115226;28;20206;-76
2022/07/04 01:25:29;;;;;;;1.07;1.07;;;;;20.80;98505.00;;;;5114799;28;20190;-78
2022/07/04 01:27:56;;;;;;;0.70;0.70;;;;;20.80;98505.00;;;;5114620;28;20218;-79
2022/07/04 01:30:25;;;;;;;0.50;0.50;;;;;20.80;98504.00;;;;5114675;28;20281;-76
2022/07/04 01:32:53;;;;;;;0.50;0.50;;;;;20.80;98503.00;;;;5115391;28;20209;-76
2022/07/04 01:35:20;;;;;;;0.50;0.50;;;;;20.80;98511.00;;;;5114499;28;20204;-76
2022/07/04 01:37:47;;;;;;;0.30;0.30;;;;;20.80;98501.00;;;;5114674;28;20190;-77
2022/07/04 01:40:14;;;;;;;0.60;0.60;;;;;20.70;98502.00;;;;5114773;28;20222;-75
2022/07/04 01:42:42;;;;;;;0.50;0.50;;;;;20.70;98514.00;;;;5115630;28;20614;-76
2022/07/04 01:45:10;;;;;;;0.50;0.50;;;;;20.70;98521.00;;;;5118687;28;20250;-75
2022/07/04 01:47:39;;;;;;;1.13;0.90;;;;;20.90;98512.00;;;;5098477;28;20589;-79
2022/07/04 01:50:08;;;;;;;0.50;0.50;;;;;20.70;98521.00;;;;5116809;28;20206;-76
2022/07/04 01:52:37;;;;;;;0.50;0.50;;;;;20.50;98516.00;;;;5116727;28;20221;-78
2022/07/04 01:55:05;;;;;;;0.40;0.40;;;;;20.40;98525.00;;;;5115316;28;20537;-77
2022/07/04 01:57:32;;;;;;;0.57;0.57;;;;;20.40;98528.00;;;;5114184;28;20206;-77
2022/07/04 02:02:44;;;;;;;0.80;0.80;;;;;20.40;98537.00;;;;5114204;28;20655;-78
2022/07/04 02:05:11;;;;;;;0.50;0.50;;;;;20.30;98542.00;;;;5114319;28;20232;-77
2022/07/04 02:07:38;;;;;;;0.70;0.70;;;;;20.30;98539.00;;;;5114191;28;20209;-76
2022/07/04 02:10:06;;;;;;;1.20;1.10;;;;;20.40;98540.00;;;;5096009;28;20208;-76
2022/07/04 02:15:21;;;;;;;0.32;0.32;;;;;20.40;98537.00;;;;5114101;28;20205;-77
2022/07/04 02:17:48;;;;;;;0.50;0.50;;;;;20.40;98537.00;;;;5096218;28;20599;-76
2022/07/04 02:20:15;;;;;;;0.50;0.50;;;;;20.10;98531.00;;;;5096155;28;20222;-77
2022/07/04 02:22:42;;;;;;;0.90;0.90;;;;;20.10;98536.00;;;;5113797;28;20228;-76
2022/07/04 02:25:11;;;;;;;0.70;0.70;;;;;20.10;98544.00;;;;5113919;28;20190;-77
2022/07/04 02:27:38;;;;;;;0.70;0.70;;;;;20.00;98545.00;;;;5113741;28;20273;-75
2022/07/04 02:30:07;;;;;;;0.50;0.50;;;;;20.00;98547.00;;;;5095809;28;20236;-75
2022/07/04 02:32:34;;;;;;;0.60;0.60;;;;;20.20;98557.00;;;;5113707;28;20201;-76
2022/07/04 02:35:01;;;;;;;0.47;0.47;;;;;20.20;98559.00;;;;5113660;28;20672;-75
2022/07/04 02:37:30;;;;;;;0.57;0.57;;;;;20.20;98553.00;;;;5113792;28;20204;-75
2022/07/04 02:39:56;;;;;;;0.50;0.50;;;;;20.10;98549.00;;;;5113572;28;20214;-76
2022/07/04 02:42:24;;;;;;;1.27;1.17;;;;;19.90;98565.00;;;;5113575;28;20214;-75
2022/07/04 02:44:51;;;;;;;0.40;0.40;;;;;19.90;98564.00;;;;5113759;28;20195;-75
2022/07/04 02:47:18;;;;;;;0.50;0.50;;;;;19.90;98572.00;;;;5095530;28;20222;-75
2022/07/04 02:49:46;;;;;;;0.47;0.47;;;;;19.90;98566.00;;;;5095607;28;20210;-76
2022/07/04 02:52:13;;;;;;;0.60;0.60;;;;;19.90;98572.00;;;;5113549;28;20198;-75
2022/07/04 02:54:40;;;;;;;0.50;0.50;;;;;19.80;98575.00;;;;5113741;28;20194;-75
2022/07/04 02:57:07;;;;;;;0.50;0.50;;;;;19.80;98567.00;;;;5117279;28;20290;-75
2022/07/04 02:59:35;;;;;;;0.50;0.50;;;;;19.70;98571.00;;;;5116968;28;20236;-76
2022/07/04 03:02:02;;;;;;;0.57;0.57;;;;;19.70;98578.00;;;;5098939;28;20656;-75
2022/07/04 03:04:29;;;;;;;0.60;0.60;;;;;19.70;98576.00;;;;5117082;28;20292;-75
2022/07/04 03:06:56;;;;;;;1.23;0.70;;;;;19.70;98577.00;;;;5116871;28;20191;-75
2022/07/04 03:09:22;;;;;;;0.50;0.50;;;;;19.70;98576.00;;;;5098905;28;20209;-76
2022/07/04 03:11:49;;;;;;;0.63;0.63;;;;;19.60;98578.00;;;;5116877;28;20229;-76
2022/07/04 03:14:16;;;;;;;0.40;0.40;;;;;19.60;98591.00;;;;5116974;28;20194;-76
2022/07/04 03:16:46;;;;;;;0.47;0.47;;;;;19.50;98584.00;;;;5116698;28;20586;-76
2022/07/04 03:19:13;;;;;;;1.10;1.10;;;;;19.40;98584.00;;;;5116733;28;20187;-74
2022/07/04 03:21:40;;;;;;;0.80;0.80;;;;;19.50;98579.00;;;;5098747;28;20222;-76
2022/07/04 03:24:08;;;;;;;0.43;0.43;;;;;19.40;98577.00;;;;5118059;28;20213;-76
2022/07/04 03:26:35;;;;;;;0.40;0.40;;;;;19.50;98593.00;;;;5121268;28;20198;-76
2022/07/04 03:29:02;;;;;;;0.70;0.70;;;;;19.50;98584.00;;;;5116719;28;20193;-76
2022/07/04 03:31:30;;;;;;;0.50;0.50;;;;;19.40;98592.00;;;;5116576;28;20230;-76
2022/07/04 03:33:57;;;;;;;0.40;0.40;;;;;19.40;98591.00;;;;5116408;28;20210;-76
2022/07/04 03:36:24;;;;;;;1.23;1.13;;;;;19.70;98595.00;;;;5116330;28;20213;-76
2022/07/04 03:38:51;;;;;;;0.50;0.50;;;;;19.50;98602.00;;;;5116473;28;20194;-76
2022/07/04 03:41:20;;;;;;;2.40;1.07;;;;;19.40;98598.00;;;;5116268;28;20222;-76
2022/07/04 03:43:47;;;;;;;1.63;0.67;;;;;19.30;98597.00;;;;5116137;28;20202;-75
2022/07/04 03:46:14;;;;;;;0.70;0.70;;;;;19.40;98600.00;;;;5116187;28;20182;-76
2022/07/04 03:48:43;;;;;;;0.40;0.40;;;;;19.40;98600.00;;;;5116090;28;20222;-76
2022/07/04 03:51:13;;;;;;;0.60;0.60;;;;;19.40;98604.00;;;;5116429;28;20306;-76
2022/07/04 03:53:40;;;;;;;0.50;0.50;;;;;19.30;98605.00;;;;5116174;28;20204;-76
2022/07/04 03:56:08;;;;;;;0.50;0.50;;;;;19.30;98605.00;;;;5100003;28;20537;-76
2022/07/04 03:58:37;;;;;;;0.47;0.47;;;;;19.20;98603.00;;;;5117577;28;20201;-77
2022/07/04 04:01:04;;;;;;;0.63;0.63;;;;;19.20;98603.00;;;;5118684;28;20275;-76
2022/07/04 04:06:21;;;;;;;0.60;0.60;;;;;19.20;98618.00;;;;5116200;28;20193;-76
2022/07/04 04:08:50;;;;;;;0.67;0.67;;;;;19.20;98616.00;;;;5116358;28;20256;-76
2022/07/04 04:11:17;;;;;;;0.60;0.60;;;;;19.20;98613.00;;;;5115986;28;20217;-76
2022/07/04 04:13:44;;;;;;;0.40;0.40;;;;;19.20;98620.00;;;;5097963;28;20225;-76
2022/07/04 04:16:10;;;;;;;0.73;0.73;;;;;19.20;98618.00;;;;5115771;28;20216;-76
2022/07/04 04:18:38;;;;;;;0.43;0.43;;;;;19.20;98618.00;;;;5115758;28;20202;-76
2022/07/04 04:21:05;;;;;;;0.43;0.43;;;;;19.10;98614.00;;;;5115810;28;20217;-76
2022/07/04 04:23:33;;;;;;;0.50;0.50;;;;;19.00;98615.00;;;;5115800;28;20194;-76
2022/07/04 04:26:00;;;;;;;0.73;0.73;;;;;19.00;98621.00;;;;5116081;28;20239;-76
2022/07/04 04:28:26;;;;;;;0.60;0.60;;;;;19.00;98622.00;;;;5115784;28;20194;-76
2022/07/04 04:30:53;;;;;;;0.77;0.77;;;;;19.00;98634.00;;;;5115399;28;20204;-76
2022/07/04 04:33:20;;;;;;;0.50;0.50;;;;;18.80;98644.00;;;;5116610;28;20665;-76
2022/07/04 04:35:47;;;;;;;0.40;0.40;;;;;18.80;98651.00;;;;5115435;28;20222;-75
2022/07/04 04:38:14;;;;;;;0.50;0.50;;;;;18.80;98649.00;;;;5115395;28;20218;-75
2022/07/04 04:40:43;;;;;;;0.60;0.60;;;;;18.70;98660.00;;;;5097317;28;20225;-76
2022/07/04 04:43:12;;;;;;;0.70;0.70;;;;;18.80;98656.00;;;;5115142;28;20800;-77
2022/07/04 04:45:40;;;;;;;0.50;0.50;;;;;18.80;98664.00;;;;5115327;28;20288;-76
2022/07/04 04:48:07;;;;;;;0.40;0.40;;;;;18.60;98662.00;;;;5115221;28;20190;-76
2022/07/04 04:50:34;;;;;;;0.50;0.50;;;;;18.50;98662.00;;;;5115041;28;20229;-75
2022/07/04 04:53:01;;;;;;;0.40;0.40;;;;;18.40;98675.00;;;;5115147;28;20634;-76
2022/07/04 04:55:28;;;;;;;0.50;0.50;;;;;18.60;98675.00;;;;5115436;28;20233;-76
2022/07/04 04:57:56;;;;;;;0.93;0.93;;;;;18.50;98668.00;;;;5097163;28;20258;-76
2022/07/04 05:00:23;;;;;;;0.80;0.80;;;;;18.70;98671.00;;;;5097050;28;20656;-76
2022/07/04 05:02:49;;;;;;;0.67;0.67;;;;;18.70;98678.00;;;;5114987;28;20213;-76
2022/07/04 05:05:16;;;;;;;0.90;0.90;;;;;18.70;98679.00;;;;5114921;28;20205;-76
2022/07/04 05:07:44;;;;;;;0.80;0.80;;;;;18.80;98686.00;;;;5114760;28;20240;-75
2022/07/04 05:10:11;;;;;;;0.60;0.60;;;;;18.80;98684.00;;;;5114935;28;20198;-75
2022/07/04 05:12:38;;;;;;;0.50;0.50;;;;;18.70;98683.00;;;;5114772;28;20286;-76
2022/07/04 05:15:06;;;;;;;0.93;0.93;;;;;18.60;98679.00;;;;5114727;28;20301;-75
2022/07/04 05:17:33;;;;;;;2.33;1.50;;;;;18.70;98683.00;;;;5114732;28;20190;-76
2022/07/04 05:20:00;;;;;;;0.50;0.50;;;;;18.60;98677.00;;;;5115190;28;20226;-77
2022/07/04 05:22:27;;;;;;;0.50;0.50;;;;;18.60;98681.00;;;;5114760;28;20204;-76
2022/07/04 05:24:54;;;;;;;0.40;0.40;;;;;18.90;98676.00;;;;5114619;28;20257;-77
2022/07/04 05:27:23;;;;;;;0.60;0.60;;;;;18.70;98671.00;;;;5114470;28;20218;-75
2022/07/04 05:29:50;;;;;;;0.90;0.90;;;;;18.80;98674.00;;;;5114522;28;20201;-75
2022/07/04 05:32:17;;;;;;;0.60;0.60;;;;;18.90;98682.00;;;;5114440;28;20225;-75
2022/07/04 05:34:44;;;;;;;0.60;0.60;;;;;18.80;98679.00;;;;5114645;28;20198;-75
2022/07/04 05:37:11;;;;;;;0.50;0.50;;;;;18.90;98673.00;;;;5114604;28;20194;-75
2022/07/04 05:39:40;;;;;;;0.70;0.70;;;;;19.10;98678.00;;;;5114291;28;20232;-76
2022/07/04 05:42:07;;;;;;;0.50;0.50;;;;;19.20;98674.00;;;;5114522;28;20630;-75
2022/07/04 05:44:34;;;;;;;1.70;1.17;;;;;19.30;98675.00;;;;5114212;28;20217;-75
2022/07/04 05:47:00;;;;;;;0.70;0.70;;;;;19.40;98666.00;;;;5114446;28;20522;-76
2022/07/04 05:49:28;;;;;;;0.70;0.70;;;;;19.40;98663.00;;;;5096245;28;20525;-75
2022/07/04 05:51:55;;;;;;;0.53;0.53;;;;;19.60;98676.00;;;;5114257;28;20229;-76
2022/07/04 05:54:22;;;;;;;0.60;0.60;;;;;19.70;98675.00;;;;5115308;28;20205;-76
2022/07/04 05:56:49;;;;;;;0.63;0.63;;;;;19.90;98671.00;;;;5114156;28;20646;-76
2022/07/04 05:59:15;;;;;;;0.73;0.73;;;;;20.10;98668.00;;;;5115912;28;20272;-76
2022/07/04 06:01:45;;;;;;;0.40;0.40;;;;;20.20;98667.00;;;;5114114;28;20222;-76
2022/07/04 06:04:11;;;;;;;0.90;0.57;;;;;20.10;98671.00;;;;5114202;28;20218;-76
2022/07/04 06:06:39;;;;;;;0.50;0.50;;;;;20.20;98666.00;;;;5114594;28;20204;-76
2022/07/04 06:09:06;;;;;;;0.40;0.40;;;;;20.40;98664.00;;;;5116846;28;20214;-75
2022/07/04 06:11:34;;;;;;;1.43;1.33;;;;;20.50;98661.00;;;;5116101;28;20210;-75
2022/07/04 06:14:01;;;;;;;0.50;0.50;;;;;20.60;98669.00;;;;5114222;28;20268;-76
2022/07/04 06:16:28;;;;;;;0.40;0.40;;;;;20.60;98663.00;;;;5115800;28;20200;-76
2022/07/04 06:18:55;;;;;;;0.50;0.50;;;;;20.60;98664.00;;;;5116103;28;20186;-75
2022/07/04 06:21:21;;;;;;;0.83;0.83;;;;;20.80;98663.00;;;;5113602;28;20240;-74
2022/07/04 06:23:51;;;;;;;0.60;0.60;;;;;20.80;98657.00;;;;5113948;28;20185;-75
2022/07/04 06:26:18;;;;;;;0.63;0.63;;;;;20.70;98660.00;;;;5113749;28;20194;-75
2022/07/04 06:28:47;;;;;;;1.63;1.10;;;;;20.80;98662.00;;;;5113735;28;20260;-73
2022/07/04 06:31:14;;;;;;;0.73;0.60;;;;;20.70;98656.00;;;;5116275;28;20197;-73
2022/07/04 06:36:23;;;;;;;0.50;0.50;;;;;20.80;98663.00;;;;5116295;28;20209;-72
2022/07/04 06:38:51;;;;;;;0.57;0.57;;;;;20.80;98671.00;;;;5117190;28;20282;-72
2022/07/04 06:41:17;;;;;;;0.87;0.63;;;;;20.80;98675.00;;;;5117177;28;20210;-71
2022/07/04 06:43:44;;;;;;;0.70;0.70;;;;;20.90;98670.00;;;;5117205;28;20200;-74
2022/07/04 06:46:11;;;;;;;0.60;0.60;;;;;20.90;98670.00;;;;5117140;28;20255;-75
2022/07/04 06:48:38;;;;;;;0.57;0.57;;;;;21.10;98674.00;;;;5117944;28;20302;-75
2022/07/04 06:51:05;;;;;;;0.60;0.60;;;;;21.20;98672.00;;;;5117290;28;20198;-73
2022/07/04 06:53:32;;;;;;;0.60;0.60;;;;;21.20;98674.00;;;;5117053;28;20204;-75
2022/07/04 06:55:59;;;;;;;2.00;0.77;;;;;21.30;98671.00;;;;5117147;28;20277;-76
2022/07/04 06:58:26;;;;;;;0.50;0.50;;;;;21.40;98679.00;;;;5116964;28;20728;-73
2022/07/04 07:00:53;;;;;;;0.47;0.47;;;;;21.30;98680.00;;;;5116909;28;20217;-76
2022/07/04 07:03:19;;;;;;;0.50;0.50;;;;;21.40;98678.00;;;;5116820;28;20295;-75
2022/07/04 07:05:46;;;;;;;1.20;1.20;;;;;21.30;98677.00;;;;5116802;28;20237;-75
2022/07/04 07:08:13;;;;;;;1.08;0.98;;;;;21.10;98674.00;;;;5116855;28;20210;-75
2022/07/04 07:10:40;;;;;;;0.38;0.38;;;;;21.30;98675.00;;;;5116778;28;20215;-74
2022/07/04 07:13:08;;;;;;;0.60;0.60;;;;;21.20;98663.00;;;;5116631;28;20508;-76
2022/07/04 07:15:35;;;;;;;0.50;0.50;;;;;21.40;98669.00;;;;5116703;28;20245;-77
2022/07/04 07:18:04;;;;;;;0.57;0.57;;;;;21.50;98670.00;;;;5116696;28;20258;-75
2022/07/04 07:20:31;;;;;;;1.02;1.02;;;;;21.40;98667.00;;;;5116477;28;20355;-75
2022/07/04 07:22:58;;;;;;;0.63;0.63;;;;;21.40;98661.00;;;;5116599;28;20339;-76
2022/07/04 07:25:25;;;;;;;0.50;0.50;;;;;21.30;98656.00;;;;5116707;28;20208;-74
2022/07/04 07:27:52;;;;;;;1.20;1.20;;;;;21.40;98666.00;;;;5116748;28;20285;-78
2022/07/04 07:30:19;;;;;;;0.70;0.70;;;;;21.50;98652.00;;;;5116486;28;20232;-75
2022/07/04 07:32:49;;;;;;;0.40;0.40;;;;;21.80;98656.00;;;;5116329;28;20555;-77
2022/07/04 07:35:16;;;;;;;1.65;1.40;;;;;21.90;98653.00;;;;5116341;28;20186;-75
2022/07/04 07:37:42;;;;;;;0.50;0.50;;;;;21.90;98656.00;;;;5116353;28;20217;-78
2022/07/04 07:40:10;;;;;;;0.52;0.52;;;;;22.00;98662.00;;;;5116249;28;20232;-75
2022/07/04 07:42:39;;;;;;;0.77;0.77;;;;;21.80;98657.00;;;;5115033;28;20205;-75
2022/07/04 07:45:09;;;;;;;0.50;0.50;;;;;21.80;98656.00;;;;5116141;28;20210;-76
2022/07/04 07:47:39;;;;;;;0.43;0.43;;;;;22.00;98653.00;;;;5119022;28;20277;-75
2022/07/04 07:50:06;;;;;;;0.50;0.50;;;;;22.00;98652.00;;;;5116070;28;20206;-74
2022/07/04 07:52:33;;;;;;;1.27;0.88;;;;;22.00;98644.00;;;;5116031;28;20213;-75
2022/07/04 07:55:00;;;;;;;2.05;0.95;;;;;22.10;98652.00;;;;5117421;28;20205;-74
2022/07/04 07:57:30;;;;;;;0.47;0.47;;;;;22.30;98653.00;;;;5115963;28;20199;-74
2022/07/04 07:59:57;;;;;;;0.60;0.60;;;;;22.20;98655.00;;;;5116006;28;20660;-74
2022/07/04 08:04:34;;;;;;;0.40;0.40;;;;;22.30;98646.00;;;;5115920;28;20679;-73
2022/07/04 08:05:12;;;;;;;0.40;0.40;;;;;22.40;98648.00;;;;5115787;28;20210;-75
2022/07/04 08:07:40;;;;;;;0.98;0.75;;;;;22.40;98646.00;;;;5115723;28;20374;-74
2022/07/04 08:10:08;;;;;;;0.50;0.50;;;;;22.30;98650.00;;;;5115891;28;20331;-75
2022/07/04 08:12:36;;;;;;;1.10;1.10;;;;;22.30;98652.00;;;;5115787;28;20194;-75
2022/07/04 08:15:06;;;;;;;0.50;0.50;;;;;22.20;98652.00;;;;5098358;28;20206;-76
2022/07/04 08:17:33;;;;;;;0.98;0.77;;;;;22.20;98647.00;;;;5116910;28;20190;-75
2022/07/04 08:20:00;;;;;;;0.50;0.50;;;;;22.40;98646.00;;;;5116266;28;20281;-77
2022/07/04 08:22:27;;;;;;;0.57;0.57;;;;;22.30;98634.00;;;;5117627;28;20194;-76
2022/07/04 08:24:54;;;;;;;0.60;0.60;;;;;22.30;98639.00;;;;5115782;28;20221;-75
2022/07/04 08:27:23;;;;;;;0.55;0.55;;;;;22.30;98635.00;;;;5115702;28;20232;-75
2022/07/04 08:29:50;;;;;;;0.55;0.55;;;;;22.30;98629.00;;;;5115494;28;20675;-76
2022/07/04 08:32:16;;;;;;;0.60;0.60;;;;;22.40;98633.00;;;;5115461;28;20236;-76
2022/07/04 08:34:43;;;;;;;0.50;0.50;;;;;22.30;98631.00;;;;5116783;28;20335;-75
2022/07/04 08:37:10;;;;;;;0.50;0.50;;;;;22.40;98626.00;;;;5116993;28;20221;-75
2022/07/04 08:39:38;;;;;;;0.52;0.52;;;;;22.60;98640.00;;;;5115277;28;20218;-74
2022/07/04 08:42:15;;;;;;;0.40;0.40;;;;;22.70;98626.00;;;;5115313;28;20305;-74
2022/07/04 08:44:48;;;;;;;0.70;0.70;;;;;22.90;98624.00;;;;5115435;28;20214;-74
2022/07/04 08:47:19;;;;;;;0.50;0.50;;;;;22.90;98622.00;;;;5115375;28;20220;-73
2022/07/04 08:49:53;;;;;;;0.40;0.40;;;;;22.70;98624.00;;;;5097307;28;20534;-75
2022/07/04 08:52:30;;;;;;;0.35;0.35;;;;;22.80;98619.00;;;;5115172;28;20189;-75
2022/07/04 09:00:29;;;;;;;0.50;0.50;;;;;23.10;98624.00;;;;5115132;28;20321;-74
2022/07/04 09:02:56;;;;;;;0.80;0.80;;;;;23.30;98628.00;;;;5115016;28;20201;-75
2022/07/04 09:05:23;;;;;;;0.63;0.63;;;;;23.40;98626.00;;;;5115048;28;20237;-76
2022/07/04 09:07:50;;;;;;;0.40;0.40;;;;;23.50;98625.00;;;;5096986;28;20214;-75
2022/07/04 09:10:19;;;;;;;0.60;0.60;;;;;23.60;98630.00;;;;5114866;28;20184;-77
2022/07/04 09:12:48;;;;;;;0.50;0.50;;;;;23.50;98633.00;;;;5114849;28;20200;-76
2022/07/04 09:15:16;;;;;;;0.93;0.93;;;;;23.40;98643.00;;;;5114803;28;20214;-77
2022/07/04 09:17:43;;;;;;;0.80;0.80;;;;;23.20;98639.00;;;;5114906;28;20218;-75
2022/07/04 09:20:15;;;;;;;0.50;0.50;;;;;22.90;98647.00;;;;5114740;28;20200;-76
2022/07/04 09:22:42;;;;;;;0.60;0.60;;;;;22.90;98649.00;;;;5096779;28;20225;-76
2022/07/04 09:25:12;;;;;;;3.85;1.30;;;;;23.10;98648.00;;;;5115827;28;20206;-76
2022/07/04 09:27:44;;;;;;;1.00;1.00;;;;;23.00;98659.00;;;;5114790;28;20250;-75
2022/07/04 09:30:12;;;;;;;0.70;0.70;;;;;22.80;98656.00;;;;5114640;28;20193;-73
2022/07/04 09:32:41;;;;;;;0.68;0.68;;;;;22.90;98646.00;;;;5114604;28;20214;-74
2022/07/04 09:35:09;;;;;;;0.43;0.43;;;;;22.80;98648.00;;;;5114566;28;20206;-76
2022/07/04 09:37:41;;;;;;;0.30;0.30;;;;;23.00;98642.00;;;;5114570;28;20212;-76
2022/07/04 09:40:10;;;;;;;0.70;0.70;;;;;23.20;98649.00;;;;5114297;28;20296;-76
2022/07/04 09:42:42;;;;;;;0.60;0.60;;;;;23.50;98648.00;;;;5114851;28;20210;-80
2022/07/04 09:45:11;;;;;;;0.82;0.82;;;;;23.40;98651.00;;;;5114582;28;20269;-76
2022/07/04 09:47:39;;;;;;;0.50;0.50;;;;;23.20;98655.00;;;;5114393;28;20186;-75
2022/07/04 09:50:08;;;;;;;0.50;0.50;;;;;23.50;98652.00;;;;5114212;28;20262;-77
2022/07/04 09:52:49;;;;;;;0.70;0.70;;;;;23.50;98651.00;;;;5114285;28;20202;-77
2022/07/04 09:55:22;;;;;;;0.50;0.50;;;;;23.30;98661.00;;;;5114268;28;20189;-76
2022/07/04 09:57:50;;;;;;;0.50;0.50;;;;;23.40;98658.00;;;;5114277;28;20228;-76
2022/07/04 10:00:18;;;;;;;0.50;0.50;;;;;23.20;98665.00;;;;5114268;28;20258;-82
2022/07/04 10:02:45;;;;;;;0.57;0.57;;;;;23.30;98660.00;;;;5114209;28;20198;-77
2022/07/04 10:05:22;;;;;;;0.50;0.50;;;;;23.50;98659.00;;;;5113376;28;20527;-77
2022/07/04 10:07:49;;;;;;;0.60;0.60;;;;;23.70;98659.00;;;;5114205;28;20269;-74
2022/07/04 10:10:29;;;;;;;0.73;0.73;;;;;24.10;98658.00;;;;5096129;28;20201;-76
2022/07/04 10:12:58;;;;;;;0.60;0.60;;;;;23.90;98659.00;;;;5113994;28;20648;-77
2022/07/04 10:15:25;;;;;;;0.90;0.90;;;;;24.00;98656.00;;;;5114226;28;20669;-75
2022/07/04 10:17:52;;;;;;;0.43;0.43;;;;;24.00;98656.00;;;;5113941;28;20201;-74
2022/07/04 10:20:21;;;;;;;0.50;0.50;;;;;24.00;98657.00;;;;5113779;28;20194;-76
2022/07/04 10:22:48;;;;;;;0.80;0.80;;;;;24.30;98660.00;;;;5114905;28;20190;-76
2022/07/04 10:25:15;;;;;;;0.85;0.85;;;;;24.80;98664.00;;;;5113838;28;20193;-76
2022/07/04 10:27:42;;;;;;;0.60;0.60;;;;;24.90;98662.00;;;;5114188;28;20195;-77
2022/07/04 10:30:14;;;;;;;0.60;0.60;;;;;25.00;98662.00;;;;5114047;28;20618;-78
2022/07/04 10:32:43;;;;;;;0.50;0.50;;;;;24.80;98659.00;;;;5113942;28;20221;-77
2022/07/04 10:35:14;;;;;;;6.10;0.95;;;;;24.90;98657.00;;;;5114052;28;20220;-76
2022/07/04 10:38:03;;;;;;;0.60;0.60;;;;;25.20;98656.00;;;;5114531;28;20201;-80
2022/07/04 10:40:43;;;;;;;0.93;0.93;;;;;25.10;98656.00;;;;5113575;28;20210;-77
2022/07/04 10:43:37;;;;;;;0.52;0.52;;;;;25.20;98652.00;;;;5113679;28;20197;-77
2022/07/04 10:46:23;;;;;;;0.60;0.60;;;;;25.50;98646.00;;;;5113490;28;20220;-76
2022/07/04 10:48:51;;;;;;;0.60;0.60;;;;;25.20;98647.00;;;;5095833;28;20209;-77
2022/07/04 10:51:37;;;;;;;0.57;0.57;;;;;25.30;98654.00;;;;5113387;28;20230;-73
2022/07/04 10:54:06;;;;;;;0.60;0.60;;;;;25.60;98651.00;;;;5113689;28;20254;-76
2022/07/04 10:56:38;;;;;;;0.50;0.50;;;;;25.50;98651.00;;;;5113517;28;20190;-76
2022/07/04 10:59:10;;;;;;;0.70;0.70;;;;;25.80;98643.00;;;;5113319;28;20217;-78
2022/07/04 11:01:38;;;;;;;0.40;0.40;;;;;25.80;98652.00;;;;5113327;28;20657;-75
2022/07/04 11:04:05;;;;;;;0.73;0.73;;;;;26.00;98653.00;;;;5113369;28;20212;-77
2022/07/04 11:06:54;;;;;;;1.00;1.00;;;;;26.20;98652.00;;;;5113165;28;20672;-75
2022/07/04 11:09:24;;;;;;;0.90;0.90;;;;;26.30;98648.00;;;;5095333;28;20198;-75
2022/07/04 11:11:55;;;;;;;0.40;0.40;;;;;26.20;98644.00;;;;5113252;28;20587;-75
2022/07/04 11:14:40;;;;;;;0.68;0.68;;;;;26.10;98634.00;;;;5113269;28;20190;-75
2022/07/04 11:17:09;;;;;;;0.55;0.55;;;;;26.10;98638.00;;;;5115278;28;20555;-76
2022/07/04 11:19:36;;;;;;;1.02;1.02;;;;;26.40;98635.00;;;;5116778;28;20197;-75
2022/07/04 11:22:05;;;;;;;0.60;0.60;;;;;27.00;98633.00;;;;5116512;28;20221;-76
2022/07/04 11:24:33;;;;;;;0.60;0.60;;;;;27.40;98624.00;;;;5116625;28;20620;-75
2022/07/04 11:27:00;;;;;;;0.60;0.60;;;;;27.40;98627.00;;;;5116715;28;20202;-76
2022/07/04 11:29:28;;;;;;;0.52;0.52;;;;;27.90;98629.00;;;;5116536;28;20218;-75
2022/07/04 11:31:55;;;;;;;1.00;1.00;;;;;28.00;98626.00;;;;5116524;28;20198;-76
2022/07/04 11:34:24;;;;;;;0.93;0.70;;;;;28.20;98623.00;;;;5116517;28;20196;-76
2022/07/04 11:36:53;;;;;;;0.73;0.73;;;;;28.10;98619.00;;;;5116499;28;20205;-76
2022/07/04 11:39:22;;;;;;;0.85;0.80;;;;;28.30;98615.00;;;;5116448;28;20222;-71
2022/07/04 11:47:25;;;;;;;0.60;0.60;;;;;28.80;98600.00;;;;5115966;28;20222;-76
2022/07/04 11:49:54;;;;;;;0.90;0.90;;;;;28.60;98599.00;;;;5116201;28;20190;-74
2022/07/04 11:52:24;;;;;;;0.68;0.68;;;;;28.80;98600.00;;;;5116399;28;20182;-76
2022/07/04 11:54:54;;;;;;;0.90;0.90;;;;;28.10;98597.00;;;;5116055;28;20222;-73
2022/07/04 11:57:23;;;;;;;0.70;0.70;;;;;28.10;98595.00;;;;5116148;28;20198;-74
2022/07/04 11:59:58;;;;;;;1.27;1.25;;;;;28.60;98583.00;;;;5116077;28;20201;-76
2022/07/04 12:02:27;;;;;;;0.80;0.80;;;;;28.90;98577.00;;;;5116265;28;20229;-75
2022/07/04 12:04:56;;;;;;;0.50;0.50;;;;;29.30;98571.00;;;;5120120;28;20342;-74
2022/07/04 12:07:25;;;;;;;1.00;1.00;;;;;29.20;98583.00;;;;5116801;28;20194;-74
2022/07/04 12:09:53;;;;;;;0.60;0.60;;;;;29.30;98574.00;;;;5115761;28;20221;-75
2022/07/04 12:12:21;;;;;;;0.50;0.50;;;;;29.90;98569.00;;;;5097906;28;20217;-75
2022/07/04 12:14:59;;;;;;;0.70;0.70;;;;;30.10;98564.00;;;;5115970;28;20194;-76
2022/07/04 12:17:32;;;;;;;0.60;0.60;;;;;30.20;98570.00;;;;5116160;28;20284;-75
2022/07/04 12:20:01;;;;;;;2.97;0.98;;;;;29.70;98570.00;;;;5116264;28;20653;-75
2022/07/04 12:22:36;;;;;;;0.57;0.57;;;;;29.20;98567.00;;;;5115643;28;20672;-76
2022/07/04 12:25:06;;;;;;;0.50;0.50;;;;;29.20;98548.00;;;;5115703;28;20636;-76
2022/07/04 12:27:33;;;;;;;0.77;0.77;;;;;29.70;98542.00;;;;5115028;28;20233;-75
2022/07/04 12:30:03;;;;;;;0.70;0.70;;;;;30.30;98542.00;;;;5115492;28;20335;-76
2022/07/04 12:32:47;;;;;;;0.60;0.60;;;;;30.70;98531.00;;;;5115451;28;20210;-75
2022/07/04 12:35:47;;;;;;;0.52;0.52;;;;;30.70;98538.00;;;;5115447;28;20655;-74
2022/07/04 12:38:16;;;;;;;1.33;1.23;;;;;30.70;98538.00;;;;5111544;28;20230;-76
2022/07/04 12:40:56;;;;;;;0.80;0.80;;;;;30.80;98525.00;;;;5115307;28;20237;-76
2022/07/04 12:43:24;;;;;;;0.73;0.73;;;;;30.80;98522.00;;;;5115381;28;20200;-75
2022/07/04 12:45:54;;;;;;;3.40;1.30;;;;;31.40;98517.00;;;;5115253;28;20684;-75
2022/07/04 12:48:24;;;;;;;0.82;0.82;;;;;31.10;98509.00;;;;5115206;28;20194;-74